Time;durP1;ratioP1;P1;durP2;ratioP2;P2;SDS_P1;SDS_P2;PMS_P1;PMS_P2;Temp;Humidity;BMP_temperature;BMP_pressure;BME280_temperature;BME280_humidity;BME280_pressure;Samples;Min_cycle;Max_cycle;Signal;HPM_P1;HPM_P2
2021/12/28 00:00:19;;;;;;;82.75;29.77;;;;;;;;;;4698453;30;20093;-83
2021/12/28 00:03:04;;;;;;;80.05;30.52;;;;;;;;;;4705702;30;20120;-84
2021/12/28 00:05:49;;;;;;;75.07;29.45;;;;;;;;;;4704965;30;20061;-84
2021/12/28 00:08:36;;;;;;;69.78;27.52;;;;;;;;;;4712771;30;20042;-83
2021/12/28 00:11:22;;;;;;;161.88;54.60;;;;;;;;;;4696803;30;20054;-84
2021/12/28 00:18:07;;;;;;;55.40;22.80;;;;;;;;;;4705263;30;20076;-84
2021/12/28 00:21:06;;;;;;;56.30;23.63;;;;;;;;;;4679721;30;20054;-83
2021/12/28 00:23:52;;;;;;;61.20;24.80;;;;;;;;;;4697327;30;20046;-85
2021/12/28 00:26:37;;;;;;;66.68;27.45;;;;;;;;;;4701848;30;20057;-85
2021/12/28 00:29:23;;;;;;;62.53;28.00;;;;;;;;;;4692817;30;20054;-84
2021/12/28 00:32:09;;;;;;;50.03;22.83;;;;;;;;;;4684685;30;20058;-84
2021/12/28 00:34:58;;;;;;;66.03;25.02;;;;;;;;;;4677108;30;20062;-84
2021/12/28 00:37:42;;;;;;;38.58;18.90;;;;;;;;;;4683603;30;20062;-83
2021/12/28 00:40:29;;;;;;;26.75;13.15;;;;;;;;;;4689538;30;20069;-84
2021/12/28 00:43:14;;;;;;;24.55;12.65;;;;;;;;;;4689985;30;20426;-84
2021/12/28 00:46:01;;;;;;;41.17;19.17;;;;;;;;;;4690254;30;20053;-84
2021/12/28 00:48:46;;;;;;;61.15;25.08;;;;;;;;;;4688906;30;20066;-84
2021/12/28 00:51:32;;;;;;;57.85;24.30;;;;;;;;;;4677355;30;20058;-84
2021/12/28 00:54:18;;;;;;;64.80;26.92;;;;;;;;;;4687171;30;20062;-84
2021/12/28 00:57:03;;;;;;;70.93;27.65;;;;;;;;;;4681479;30;20045;-84
2021/12/28 00:59:52;;;;;;;67.65;26.83;;;;;;;;;;4695755;30;20058;-83
2021/12/28 01:02:40;;;;;;;60.67;25.33;;;;;;;;;;4700115;30;20042;-84
2021/12/28 01:05:28;;;;;;;76.32;27.92;;;;;;;;;;4694945;30;20066;-84
2021/12/28 01:08:14;;;;;;;69.72;28.20;;;;;;;;;;4700773;30;20066;-84
2021/12/28 01:11:00;;;;;;;73.50;28.55;;;;;;;;;;4677736;30;20057;-84
2021/12/28 01:13:46;;;;;;;84.18;29.42;;;;;;;;;;4689688;30;20058;-84
2021/12/28 01:16:31;;;;;;;70.47;27.92;;;;;;;;;;4684183;30;20411;-84
2021/12/28 01:19:20;;;;;;;80.82;29.58;;;;;;;;;;4679145;30;20054;-85
2021/12/28 01:22:06;;;;;;;83.38;29.58;;;;;;;;;;4692322;30;20483;-85
2021/12/28 01:24:51;;;;;;;77.60;31.42;;;;;;;;;;4691214;30;20050;-83
2021/12/28 01:27:37;;;;;;;76.68;28.02;;;;;;;;;;4688743;30;20057;-84
2021/12/28 01:30:25;;;;;;;74.20;28.90;;;;;;;;;;4689402;30;20050;-84
2021/12/28 01:33:11;;;;;;;66.05;28.75;;;;;;;;;;4676716;30;20407;-84
2021/12/28 01:35:58;;;;;;;78.00;29.58;;;;;;;;;;4677358;30;20050;-83
2021/12/28 01:38:43;;;;;;;77.28;28.70;;;;;;;;;;4676366;30;20058;-84
2021/12/28 01:41:29;;;;;;;70.57;29.35;;;;;;;;;;4676330;30;20061;-83
2021/12/28 01:44:15;;;;;;;65.57;27.23;;;;;;;;;;4689890;30;20054;-84
2021/12/28 01:47:01;;;;;;;70.57;28.40;;;;;;;;;;4684683;30;20492;-84
2021/12/28 01:49:46;;;;;;;76.38;27.98;;;;;;;;;;4689577;30;20058;-85
2021/12/28 01:52:31;;;;;;;73.97;29.80;;;;;;;;;;4690034;30;20412;-84
2021/12/28 01:55:17;;;;;;;71.30;26.98;;;;;;;;;;4674048;30;20502;-84
2021/12/28 01:58:07;;;;;;;70.47;27.10;;;;;;;;;;4678354;30;20065;-85
2021/12/28 02:00:56;;;;;;;68.75;28.40;;;;;;;;;;4689438;30;20054;-84
2021/12/28 02:03:43;;;;;;;76.13;25.83;;;;;;;;;;4689279;30;20403;-86
2021/12/28 02:06:34;;;;;;;72.60;26.65;;;;;;;;;;4677223;30;20062;-85
2021/12/28 02:09:24;;;;;;;67.85;24.85;;;;;;;;;;4677845;30;20061;-86
2021/12/28 02:12:14;;;;;;;65.18;24.88;;;;;;;;;;4690198;30;20054;-86
2021/12/28 02:15:06;;;;;;;65.85;25.30;;;;;;;;;;4677701;30;20411;-86
2021/12/28 02:17:55;;;;;;;51.20;22.08;;;;;;;;;;4677652;30;20058;-85
2021/12/28 02:21:04;;;;;;;65.70;24.63;;;;;;;;;;4678504;30;20058;-86
2021/12/28 02:24:10;;;;;;;71.18;25.35;;;;;;;;;;4689089;30;20062;-86
2021/12/28 02:27:03;;;;;;;64.82;24.83;;;;;;;;;;4689106;30;20053;-86
2021/12/28 02:29:49;;;;;;;64.15;24.33;;;;;;;;;;4677557;30;20065;-85
2021/12/28 02:32:36;;;;;;;68.75;23.95;;;;;;;;;;4689483;30;20058;-85
2021/12/28 02:35:25;;;;;;;71.35;25.13;;;;;;;;;;4688429;30;20062;-85
2021/12/28 02:38:12;;;;;;;65.07;23.98;;;;;;;;;;4676988;30;20058;-85
2021/12/28 02:40:57;;;;;;;88.78;26.23;;;;;;;;;;4688340;30;20050;-85
2021/12/28 02:43:47;;;;;;;37.45;15.30;;;;;;;;;;4676506;30;20058;-85
2021/12/28 02:46:33;;;;;;;43.38;16.70;;;;;;;;;;4677392;30;20407;-85
2021/12/28 02:49:19;;;;;;;40.33;16.90;;;;;;;;;;4667000;30;20053;-86
2021/12/28 02:52:09;;;;;;;28.85;13.45;;;;;;;;;;4686139;30;20510;-85
2021/12/28 02:54:55;;;;;;;23.67;11.93;;;;;;;;;;4686115;30;20534;-86
2021/12/28 02:58:10;;;;;;;24.08;11.90;;;;;;;;;;4692115;30;20054;-85
2021/12/28 03:01:00;;;;;;;28.55;11.25;;;;;;;;;;4692555;30;20074;-85
2021/12/28 03:03:49;;;;;;;26.58;12.90;;;;;;;;;;4679585;30;20054;-85
2021/12/28 03:06:35;;;;;;;22.77;11.50;;;;;;;;;;4680491;30;20054;-86
2021/12/28 03:09:21;;;;;;;28.08;13.25;;;;;;;;;;4680788;30;20057;-85
2021/12/28 03:12:07;;;;;;;28.10;14.02;;;;;;;;;;4692272;30;20058;-86
2021/12/28 03:14:53;;;;;;;23.88;11.90;;;;;;;;;;4680181;30;20053;-86
2021/12/28 03:17:41;;;;;;;25.38;12.43;;;;;;;;;;4680157;30;20054;-85
2021/12/28 03:20:27;;;;;;;23.52;10.48;;;;;;;;;;4692854;30;20054;-85
2021/12/28 03:23:15;;;;;;;21.90;12.63;;;;;;;;;;4691928;30;20050;-86
2021/12/28 03:26:03;;;;;;;18.58;11.38;;;;;;;;;;4692184;30;20058;-86
2021/12/28 03:28:48;;;;;;;23.08;11.43;;;;;;;;;;4687174;30;20050;-85
2021/12/28 03:31:34;;;;;;;17.95;10.95;;;;;;;;;;4679632;30;20058;-85
2021/12/28 03:34:19;;;;;;;18.58;10.75;;;;;;;;;;4680445;30;20058;-85
2021/12/28 03:37:04;;;;;;;21.55;11.77;;;;;;;;;;4692061;30;20062;-86
2021/12/28 03:39:50;;;;;;;22.48;11.20;;;;;;;;;;4679966;30;20054;-85
2021/12/28 03:42:36;;;;;;;20.25;10.57;;;;;;;;;;4686195;30;20487;-85
2021/12/28 03:45:22;;;;;;;21.83;10.85;;;;;;;;;;4685638;30;20057;-85
2021/12/28 03:48:07;;;;;;;22.25;12.18;;;;;;;;;;4691051;30;20407;-85
2021/12/28 03:50:52;;;;;;;23.25;11.68;;;;;;;;;;4680854;30;20054;-85
2021/12/28 03:53:39;;;;;;;23.35;12.38;;;;;;;;;;4685757;30;20054;-85
2021/12/28 03:56:24;;;;;;;27.10;12.10;;;;;;;;;;4694403;30;20043;-85
2021/12/28 03:59:09;;;;;;;42.80;16.33;;;;;;;;;;4701068;30;20054;-84
2021/12/28 04:01:55;;;;;;;37.17;13.60;;;;;;;;;;4692950;30;20061;-84
2021/12/28 04:04:40;;;;;;;35.33;16.75;;;;;;;;;;4694441;30;20054;-86
2021/12/28 04:07:26;;;;;;;37.50;15.77;;;;;;;;;;4679807;30;20058;-85
2021/12/28 04:10:12;;;;;;;36.90;14.65;;;;;;;;;;4679843;30;20391;-85
2021/12/28 04:12:58;;;;;;;41.53;16.40;;;;;;;;;;4678722;30;20495;-85
2021/12/28 04:15:44;;;;;;;24.65;12.07;;;;;;;;;;4690476;30;20166;-86
2021/12/28 04:18:29;;;;;;;34.67;14.60;;;;;;;;;;4679037;30;20057;-84
2021/12/28 04:21:14;;;;;;;30.17;13.70;;;;;;;;;;4690347;30;20054;-84
2021/12/28 04:24:00;;;;;;;41.65;16.58;;;;;;;;;;4678412;30;20061;-84
2021/12/28 04:26:45;;;;;;;32.50;15.30;;;;;;;;;;4693323;30;20065;-83
2021/12/28 04:29:30;;;;;;;31.42;14.63;;;;;;;;;;4701292;30;20057;-85
2021/12/28 04:32:16;;;;;;;32.42;14.52;;;;;;;;;;4699969;30;20065;-84
2021/12/28 04:35:03;;;;;;;30.33;12.85;;;;;;;;;;4693076;30;20057;-84
2021/12/28 04:37:49;;;;;;;29.58;13.30;;;;;;;;;;4694166;30;20045;-85
2021/12/28 04:40:34;;;;;;;26.98;13.02;;;;;;;;;;4706543;30;20057;-84
2021/12/28 04:43:20;;;;;;;30.90;14.43;;;;;;;;;;4720673;30;20497;-84
2021/12/28 04:46:06;;;;;;;19.85;11.07;;;;;;;;;;4700763;30;20053;-84
2021/12/28 04:48:52;;;;;;;28.05;13.75;;;;;;;;;;4724860;30;20060;-84
2021/12/28 04:51:37;;;;;;;23.60;12.85;;;;;;;;;;4700293;30;20413;-84
2021/12/28 04:54:23;;;;;;;20.05;10.13;;;;;;;;;;4710344;30;20061;-84
2021/12/28 04:57:08;;;;;;;23.85;10.50;;;;;;;;;;4712437;30;20049;-85
2021/12/28 04:59:54;;;;;;;24.90;11.55;;;;;;;;;;4719225;30;20057;-85
2021/12/28 05:02:40;;;;;;;31.17;12.77;;;;;;;;;;4719360;30;20057;-85
2021/12/28 05:05:25;;;;;;;29.92;14.15;;;;;;;;;;4712773;30;20041;-86
2021/12/28 05:08:14;;;;;;;28.98;14.23;;;;;;;;;;4711882;30;20418;-85
2021/12/28 05:11:00;;;;;;;28.45;13.10;;;;;;;;;;4724359;30;20498;-85
2021/12/28 05:13:45;;;;;;;17.42;8.80;;;;;;;;;;4721194;30;20064;-85
2021/12/28 05:16:33;;;;;;;21.15;9.90;;;;;;;;;;4705005;30;20054;-84
2021/12/28 05:19:18;;;;;;;38.03;15.88;;;;;;;;;;4716889;30;20083;-85
2021/12/28 05:22:04;;;;;;;33.88;16.27;;;;;;;;;;4706887;30;20061;-84
2021/12/28 05:24:50;;;;;;;40.05;17.63;;;;;;;;;;4707671;30;20422;-84
2021/12/28 05:27:36;;;;;;;32.88;15.90;;;;;;;;;;4700605;30;20049;-84
2021/12/28 05:30:20;;;;;;;36.15;16.83;;;;;;;;;;4694636;30;20410;-84
2021/12/28 05:33:06;;;;;;;25.98;11.00;;;;;;;;;;4678718;30;20054;-85
2021/12/28 05:35:52;;;;;;;37.25;15.48;;;;;;;;;;4695017;30;20053;-85
2021/12/28 05:38:38;;;;;;;31.92;15.10;;;;;;;;;;4700373;30;20495;-85
2021/12/28 05:41:23;;;;;;;41.30;18.58;;;;;;;;;;4696751;30;20411;-84
2021/12/28 05:44:09;;;;;;;36.92;16.20;;;;;;;;;;4694396;30;20058;-84
2021/12/28 05:46:54;;;;;;;34.63;16.00;;;;;;;;;;4706753;30;20075;-85
2021/12/28 05:49:40;;;;;;;36.47;18.60;;;;;;;;;;4708449;30;20065;-85
2021/12/28 05:52:25;;;;;;;40.90;18.55;;;;;;;;;;4699234;30;20067;-84
2021/12/28 05:55:11;;;;;;;36.95;17.10;;;;;;;;;;4711379;30;20502;-85
2021/12/28 05:57:56;;;;;;;43.83;20.73;;;;;;;;;;4689046;30;20061;-86
2021/12/28 06:00:43;;;;;;;27.58;14.07;;;;;;;;;;4690082;30;20062;-83
2021/12/28 06:03:30;;;;;;;35.25;16.52;;;;;;;;;;4702569;30;20491;-84
2021/12/28 06:06:16;;;;;;;41.22;18.35;;;;;;;;;;4688825;30;20057;-84
2021/12/28 06:09:02;;;;;;;41.35;19.23;;;;;;;;;;4687142;30;20058;-83
2021/12/28 06:11:48;;;;;;;48.95;20.35;;;;;;;;;;4683278;30;20057;-84
2021/12/28 06:14:34;;;;;;;50.58;20.15;;;;;;;;;;4687439;30;20058;-85
2021/12/28 06:17:20;;;;;;;65.50;24.75;;;;;;;;;;4688404;30;20057;-84
2021/12/28 06:20:06;;;;;;;63.05;27.08;;;;;;;;;;4689331;30;20054;-83
2021/12/28 06:22:52;;;;;;;60.20;22.42;;;;;;;;;;4694372;30;20422;-84
2021/12/28 06:25:38;;;;;;;51.63;19.65;;;;;;;;;;4707069;30;20053;-82
2021/12/28 06:28:24;;;;;;;41.33;17.60;;;;;;;;;;4696047;30;20068;-83
2021/12/28 06:31:09;;;;;;;64.60;22.13;;;;;;;;;;4694632;30;20065;-84
2021/12/28 06:33:55;;;;;;;63.33;22.23;;;;;;;;;;4700120;30;20053;-84
2021/12/28 06:36:42;;;;;;;67.82;22.20;;;;;;;;;;4687269;30;20050;-83
2021/12/28 06:39:29;;;;;;;70.40;25.38;;;;;;;;;;4685618;30;20050;-84
2021/12/28 06:42:14;;;;;;;100.32;37.13;;;;;;;;;;4686370;30;20062;-85
2021/12/28 06:45:00;;;;;;;70.97;28.70;;;;;;;;;;4686901;30;20049;-85
2021/12/28 06:47:46;;;;;;;97.13;35.42;;;;;;;;;;4696596;30;20050;-85
2021/12/28 06:50:32;;;;;;;87.32;36.28;;;;;;;;;;4725463;30;20057;-81
2021/12/28 06:53:17;;;;;;;25.02;10.98;;;;;;;;;;4731238;30;20049;-81
2021/12/28 06:56:05;;;;;;;77.72;24.60;;;;;;;;;;4716285;30;20407;-85
2021/12/28 06:58:51;;;;;;;64.10;24.25;;;;;;;;;;4713132;30;20058;-84
2021/12/28 07:01:36;;;;;;;40.58;15.55;;;;;;;;;;4708262;30;20520;-84
2021/12/28 07:04:21;;;;;;;82.20;25.83;;;;;;;;;;4702850;30;20406;-84
2021/12/28 07:07:07;;;;;;;65.15;19.75;;;;;;;;;;4708251;30;20053;-85
2021/12/28 07:09:53;;;;;;;119.30;46.17;;;;;;;;;;4702042;30;20057;-85
2021/12/28 07:12:38;;;;;;;68.95;25.35;;;;;;;;;;4694874;30;20049;-86
2021/12/28 07:15:24;;;;;;;70.03;26.85;;;;;;;;;;4707402;30;20062;-85
2021/12/28 07:18:09;;;;;;;106.57;44.35;;;;;;;;;;4695372;30;20057;-85
2021/12/28 07:20:54;;;;;;;81.07;31.17;;;;;;;;;;4708029;30;20102;-85
2021/12/28 07:23:39;;;;;;;47.40;21.23;;;;;;;;;;4704047;30;20050;-86
2021/12/28 07:26:25;;;;;;;51.33;20.13;;;;;;;;;;4696210;30;20069;-85
2021/12/28 07:29:11;;;;;;;85.68;33.40;;;;;;;;;;4703154;30;20403;-84
2021/12/28 07:31:56;;;;;;;69.65;26.75;;;;;;;;;;4707959;30;20491;-85
2021/12/28 07:34:42;;;;;;;60.95;22.33;;;;;;;;;;4701429;30;20057;-85
2021/12/28 07:37:27;;;;;;;83.75;31.90;;;;;;;;;;4690286;30;20411;-85
2021/12/28 07:40:14;;;;;;;70.65;28.83;;;;;;;;;;4701992;30;20058;-83
2021/12/28 07:42:59;;;;;;;92.45;36.53;;;;;;;;;;4708263;30;20057;-84
2021/12/28 07:45:46;;;;;;;84.93;35.45;;;;;;;;;;4702037;30;20041;-84
2021/12/28 07:48:32;;;;;;;78.35;28.77;;;;;;;;;;4703028;30;20065;-84
2021/12/28 07:55:51;;;;;;;91.82;35.70;;;;;;;;;;4701822;30;20050;-86
2021/12/28 07:58:37;;;;;;;66.93;27.50;;;;;;;;;;4686028;30;20050;-84
2021/12/28 08:01:22;;;;;;;49.83;20.77;;;;;;;;;;4696733;30;20054;-84
2021/12/28 08:04:07;;;;;;;62.90;26.15;;;;;;;;;;4690513;30;20045;-85
2021/12/28 08:06:53;;;;;;;63.08;24.75;;;;;;;;;;4702599;30;20513;-86
2021/12/28 08:09:39;;;;;;;81.63;35.47;;;;;;;;;;4696882;30;20062;-86
2021/12/28 08:12:24;;;;;;;76.72;33.75;;;;;;;;;;4696818;30;20053;-85
2021/12/28 08:15:10;;;;;;;58.00;26.15;;;;;;;;;;4685217;30;20050;-85
2021/12/28 08:17:55;;;;;;;54.30;21.65;;;;;;;;;;4702535;30;20410;-86
2021/12/28 08:20:41;;;;;;;32.00;14.43;;;;;;;;;;4690402;30;20502;-84
2021/12/28 08:23:26;;;;;;;45.45;19.55;;;;;;;;;;4703026;30;20494;-84
2021/12/28 08:26:12;;;;;;;61.67;26.15;;;;;;;;;;4684098;30;20058;-84
2021/12/28 08:28:58;;;;;;;56.28;23.70;;;;;;;;;;4696278;30;20046;-85
2021/12/28 08:31:44;;;;;;;37.53;15.15;;;;;;;;;;4701898;30;20045;-85
2021/12/28 08:34:29;;;;;;;26.70;12.00;;;;;;;;;;4696100;30;20141;-84
2021/12/28 08:37:15;;;;;;;45.22;18.05;;;;;;;;;;4685354;30;20057;-84
2021/12/28 08:40:00;;;;;;;49.42;20.92;;;;;;;;;;4685076;30;20487;-84
2021/12/28 08:42:46;;;;;;;51.72;19.80;;;;;;;;;;4685375;30;20495;-84
2021/12/28 08:45:32;;;;;;;51.33;24.80;;;;;;;;;;4684694;30;20050;-84
2021/12/28 08:48:17;;;;;;;68.20;32.33;;;;;;;;;;4701531;30;20061;-84
2021/12/28 08:51:02;;;;;;;51.25;22.25;;;;;;;;;;4684882;30;20046;-82
2021/12/28 08:53:48;;;;;;;31.13;15.75;;;;;;;;;;4689221;30;20053;-84
2021/12/28 08:56:33;;;;;;;47.42;22.35;;;;;;;;;;4704659;30;20053;-83
2021/12/28 08:59:55;;;;;;;48.22;20.45;;;;;;;;;;4701423;30;20490;-82
2021/12/28 09:02:41;;;;;;;53.53;23.30;;;;;;;;;;4706455;30;20406;-84
2021/12/28 09:05:32;;;;;;;42.30;20.33;;;;;;;;;;4700403;30;20053;-85
2021/12/28 09:08:21;;;;;;;45.15;19.85;;;;;;;;;;4706528;30;20053;-83
2021/12/28 09:11:06;;;;;;;32.53;16.90;;;;;;;;;;4702203;30;20053;-82
2021/12/28 09:13:52;;;;;;;43.55;18.30;;;;;;;;;;4701380;30;20054;-83
2021/12/28 09:16:38;;;;;;;45.15;20.92;;;;;;;;;;4704056;30;20049;-84
2021/12/28 09:19:23;;;;;;;46.55;22.63;;;;;;;;;;4707772;30;20470;-84
2021/12/28 09:22:10;;;;;;;46.20;19.48;;;;;;;;;;4702407;30;20049;-83
2021/12/28 09:24:55;;;;;;;51.85;22.42;;;;;;;;;;4701082;30;20054;-85
2021/12/28 09:27:41;;;;;;;82.70;36.00;;;;;;;;;;4701235;30;20058;-83
2021/12/28 09:30:27;;;;;;;103.53;40.67;;;;;;;;;;4705934;30;20050;-85
2021/12/28 09:33:12;;;;;;;80.90;34.45;;;;;;;;;;4702001;30;20065;-82
2021/12/28 09:36:00;;;;;;;69.47;34.42;;;;;;;;;;4707000;30;20061;-80
2021/12/28 09:38:46;;;;;;;96.18;42.75;;;;;;;;;;4706685;30;20049;-83
2021/12/28 09:41:32;;;;;;;58.85;27.50;;;;;;;;;;4710889;30;20053;-82
2021/12/28 09:44:17;;;;;;;40.72;16.10;;;;;;;;;;4711822;30;20046;-79
2021/12/28 09:47:04;;;;;;;46.88;22.33;;;;;;;;;;4713880;30;20049;-78
2021/12/28 09:49:50;;;;;;;42.00;17.75;;;;;;;;;;4703224;30;20050;-80
2021/12/28 09:52:35;;;;;;;50.65;22.15;;;;;;;;;;4701093;30;20053;-81
2021/12/28 09:55:27;;;;;;;69.07;25.90;;;;;;;;;;4705994;30;20069;-81
2021/12/28 09:58:12;;;;;;;43.78;19.15;;;;;;;;;;4700038;30;20058;-81
2021/12/28 10:00:58;;;;;;;44.25;22.52;;;;;;;;;;4700838;30;20057;-81
2021/12/28 10:03:43;;;;;;;57.33;25.73;;;;;;;;;;4705551;30;20049;-82
2021/12/28 10:06:30;;;;;;;78.45;36.78;;;;;;;;;;4699024;30;20053;-81
2021/12/28 10:09:20;;;;;;;50.25;23.70;;;;;;;;;;4699963;30;20050;-81
2021/12/28 10:12:05;;;;;;;53.80;25.77;;;;;;;;;;4696593;30;20498;-81
2021/12/28 10:14:55;;;;;;;75.55;35.03;;;;;;;;;;4705996;30;20073;-80
2021/12/28 10:17:42;;;;;;;64.47;28.17;;;;;;;;;;4699903;30;20058;-81
2021/12/28 10:20:32;;;;;;;58.78;27.35;;;;;;;;;;4706041;30;20057;-81
2021/12/28 10:23:22;;;;;;;61.25;26.88;;;;;;;;;;4705870;30;20065;-82
2021/12/28 10:26:11;;;;;;;58.78;26.88;;;;;;;;;;4703924;30;20058;-80
2021/12/28 10:29:01;;;;;;;56.70;26.85;;;;;;;;;;4701590;30;20065;-81
2021/12/28 10:31:46;;;;;;;74.18;33.65;;;;;;;;;;4695381;30;20061;-83
2021/12/28 10:34:32;;;;;;;60.53;28.05;;;;;;;;;;4699925;30;20054;-83
2021/12/28 10:37:20;;;;;;;64.35;28.65;;;;;;;;;;4704738;30;20054;-84
2021/12/28 10:40:10;;;;;;;104.55;48.40;;;;;;;;;;4700560;30;20054;-84
2021/12/28 10:42:58;;;;;;;82.60;37.80;;;;;;;;;;4700295;30;20061;-82
2021/12/28 10:45:49;;;;;;;79.10;35.72;;;;;;;;;;4703931;30;20053;-82
2021/12/28 10:48:39;;;;;;;77.00;35.63;;;;;;;;;;4700248;30;20495;-82
2021/12/28 10:51:34;;;;;;;71.55;36.22;;;;;;;;;;4701226;30;20410;-83
2021/12/28 10:54:20;;;;;;;75.88;34.58;;;;;;;;;;4702778;30;20062;-83
2021/12/28 10:57:05;;;;;;;62.80;31.45;;;;;;;;;;4702876;30;20061;-84
2021/12/28 10:59:51;;;;;;;57.70;29.23;;;;;;;;;;4700617;30;20406;-83
2021/12/28 11:02:36;;;;;;;61.40;31.77;;;;;;;;;;4701314;30;20045;-83
2021/12/28 11:05:35;;;;;;;79.55;35.97;;;;;;;;;;4707563;30;20058;-83
2021/12/28 11:08:23;;;;;;;88.95;39.78;;;;;;;;;;4706678;30;20065;-83
2021/12/28 11:11:10;;;;;;;84.32;36.70;;;;;;;;;;4705194;30;20053;-85
2021/12/28 11:14:21;;;;;;;65.20;31.55;;;;;;;;;;4705783;30;20050;-85
2021/12/28 11:17:06;;;;;;;64.78;32.30;;;;;;;;;;4706567;30;20049;-83
2021/12/28 11:19:58;;;;;;;85.40;37.42;;;;;;;;;;4704861;30;20495;-85
2021/12/28 11:23:09;;;;;;;76.35;35.20;;;;;;;;;;4710823;30;20053;-83
2021/12/28 11:26:25;;;;;;;87.32;37.95;;;;;;;;;;4704097;30;20406;-83
2021/12/28 11:29:15;;;;;;;75.15;34.28;;;;;;;;;;4710638;30;20483;-82
2021/12/28 11:32:17;;;;;;;82.45;36.22;;;;;;;;;;4707995;30;20053;-84
2021/12/28 11:35:03;;;;;;;82.50;36.85;;;;;;;;;;4707710;30;20057;-83
2021/12/28 11:37:48;;;;;;;89.63;36.45;;;;;;;;;;4707550;30;20054;-83
2021/12/28 11:40:34;;;;;;;79.63;33.78;;;;;;;;;;4707448;30;20402;-84
2021/12/28 11:43:19;;;;;;;68.60;30.80;;;;;;;;;;4702684;30;20058;-83
2021/12/28 11:46:06;;;;;;;78.47;32.63;;;;;;;;;;4708389;30;20053;-83
2021/12/28 11:48:51;;;;;;;96.95;39.72;;;;;;;;;;4708599;30;20049;-82
2021/12/28 11:51:36;;;;;;;89.07;37.58;;;;;;;;;;4702028;30;20057;-84
2021/12/28 11:54:22;;;;;;;71.40;31.52;;;;;;;;;;4701361;30;20054;-83
2021/12/28 11:57:11;;;;;;;76.15;32.67;;;;;;;;;;4692522;30;20502;-86
2021/12/28 12:00:02;;;;;;;72.72;33.92;;;;;;;;;;4695560;30;20049;-84
2021/12/28 12:02:59;;;;;;;82.72;34.83;;;;;;;;;;4702552;30;20061;-85
2021/12/28 12:05:45;;;;;;;123.30;51.08;;;;;;;;;;4702932;30;20053;-84
2021/12/28 12:08:30;;;;;;;134.18;53.30;;;;;;;;;;4702000;30;20482;-84
2021/12/28 12:11:15;;;;;;;96.90;43.63;;;;;;;;;;4690024;30;20050;-83
2021/12/28 12:14:01;;;;;;;102.53;40.85;;;;;;;;;;4702047;30;20054;-84
2021/12/28 12:16:47;;;;;;;230.43;104.82;;;;;;;;;;4702381;30;20066;-84
2021/12/28 12:20:04;;;;;;;224.95;107.95;;;;;;;;;;4705737;30;20046;-84
2021/12/28 12:23:04;;;;;;;120.70;58.17;;;;;;;;;;4701706;30;20057;-83
2021/12/28 12:25:51;;;;;;;185.35;87.22;;;;;;;;;;4703103;30;20054;-84
2021/12/28 12:29:18;;;;;;;153.15;65.88;;;;;;;;;;4707956;30;20057;-83
2021/12/28 12:32:04;;;;;;;118.25;52.15;;;;;;;;;;4702972;30;20053;-83
2021/12/28 12:34:49;;;;;;;111.22;48.42;;;;;;;;;;4702411;30;20058;-83
2021/12/28 12:37:42;;;;;;;117.07;57.15;;;;;;;;;;4704379;30;20057;-84
2021/12/28 12:41:01;;;;;;;149.18;73.40;;;;;;;;;;4712881;30;20062;-83
2021/12/28 12:44:11;;;;;;;104.30;41.85;;;;;;;;;;4707777;30;20053;-78
2021/12/28 12:47:07;;;;;;;159.52;78.10;;;;;;;;;;4711302;30;20054;-84
2021/12/28 12:50:06;;;;;;;108.95;44.03;;;;;;;;;;4706747;30;20436;-84
2021/12/28 12:52:51;;;;;;;103.75;43.60;;;;;;;;;;4701543;30;20053;-82
2021/12/28 12:55:36;;;;;;;120.85;49.88;;;;;;;;;;4701506;30;20053;-83
2021/12/28 12:58:24;;;;;;;114.03;45.47;;;;;;;;;;4701389;30;20049;-82
2021/12/28 13:01:30;;;;;;;125.15;48.00;;;;;;;;;;4701384;30;20432;-83
2021/12/28 13:04:24;;;;;;;134.40;59.13;;;;;;;;;;4694030;30;20058;-83
2021/12/28 13:07:16;;;;;;;249.90;109.78;;;;;;;;;;4707184;30;20058;-83
2021/12/28 13:10:07;;;;;;;181.32;82.32;;;;;;;;;;4701383;30;20053;-83
2021/12/28 13:12:58;;;;;;;133.23;54.97;;;;;;;;;;4701931;30;20053;-87
2021/12/28 13:15:44;;;;;;;112.63;50.13;;;;;;;;;;4701285;30;20483;-81
2021/12/28 13:18:29;;;;;;;136.15;56.78;;;;;;;;;;4705794;30;20414;-82
2021/12/28 13:21:21;;;;;;;108.90;46.90;;;;;;;;;;4701256;30;20064;-81
2021/12/28 13:24:10;;;;;;;102.50;43.60;;;;;;;;;;4707197;30;20049;-84
2021/12/28 13:26:59;;;;;;;120.85;48.47;;;;;;;;;;4701617;30;20042;-84
2021/12/28 13:29:48;;;;;;;116.43;46.15;;;;;;;;;;4706276;30;20057;-83
2021/12/28 13:32:37;;;;;;;98.20;43.20;;;;;;;;;;4706163;30;20053;-82
2021/12/28 13:35:24;;;;;;;102.68;44.13;;;;;;;;;;4700881;30;20057;-84
2021/12/28 13:38:16;;;;;;;97.30;43.78;;;;;;;;;;4700554;30;20218;-83
2021/12/28 13:41:01;;;;;;;96.88;39.53;;;;;;;;;;4701309;30;20058;-82
2021/12/28 13:43:48;;;;;;;94.18;40.05;;;;;;;;;;4700421;30;20053;-82
2021/12/28 13:46:34;;;;;;;110.88;46.67;;;;;;;;;;4704686;30;20061;-83
2021/12/28 13:49:19;;;;;;;114.93;44.95;;;;;;;;;;4706268;30;20049;-81
2021/12/28 13:52:06;;;;;;;93.68;42.63;;;;;;;;;;4705430;30;20049;-82
2021/12/28 13:54:51;;;;;;;111.50;45.25;;;;;;;;;;4692290;30;20058;-83
2021/12/28 13:57:37;;;;;;;107.75;45.63;;;;;;;;;;4694415;30;20058;-82
2021/12/28 14:00:25;;;;;;;105.20;44.92;;;;;;;;;;4700709;30;20061;-82
2021/12/28 14:03:11;;;;;;;181.75;86.50;;;;;;;;;;4706586;30;20487;-80
2021/12/28 14:05:59;;;;;;;117.90;46.60;;;;;;;;;;4699630;30;20054;-81
2021/12/28 14:08:45;;;;;;;116.28;47.35;;;;;;;;;;4700778;30;20057;-81
2021/12/28 14:11:48;;;;;;;109.72;44.63;;;;;;;;;;4700072;30;20053;-81
2021/12/28 14:14:35;;;;;;;113.20;45.22;;;;;;;;;;4705761;30;20054;-83
2021/12/28 14:17:22;;;;;;;131.15;51.17;;;;;;;;;;4705989;30;20498;-83
2021/12/28 14:20:08;;;;;;;131.48;49.83;;;;;;;;;;4700277;30;20050;-80
2021/12/28 14:22:55;;;;;;;139.25;52.72;;;;;;;;;;4700449;30;20054;-83
2021/12/28 14:25:41;;;;;;;143.02;55.58;;;;;;;;;;4700492;30;20053;-83
2021/12/28 14:28:26;;;;;;;149.50;58.28;;;;;;;;;;4702750;30;20057;-82
2021/12/28 14:31:18;;;;;;;150.77;58.38;;;;;;;;;;4705755;30;20053;-83
2021/12/28 14:34:03;;;;;;;139.52;51.72;;;;;;;;;;4702950;30;20045;-83
2021/12/28 14:36:48;;;;;;;149.10;54.30;;;;;;;;;;4704712;30;20070;-82
2021/12/28 14:39:37;;;;;;;159.63;53.95;;;;;;;;;;4705805;30;20412;-82
2021/12/28 14:42:29;;;;;;;141.18;50.53;;;;;;;;;;4701022;30;20054;-81
2021/12/28 14:45:17;;;;;;;144.32;53.05;;;;;;;;;;4707835;30;20053;-84
2021/12/28 14:48:03;;;;;;;125.53;49.17;;;;;;;;;;4704020;30;20061;-82
2021/12/28 14:50:48;;;;;;;131.55;48.30;;;;;;;;;;4703843;30;20054;-82
2021/12/28 14:53:34;;;;;;;124.68;48.13;;;;;;;;;;4709600;30;20439;-82
2021/12/28 14:56:30;;;;;;;132.73;48.35;;;;;;;;;;4708662;30;20057;-82
2021/12/28 14:59:19;;;;;;;126.78;51.42;;;;;;;;;;4704887;30;20053;-83
2021/12/28 15:02:05;;;;;;;138.38;50.13;;;;;;;;;;4692603;30;20062;-85
2021/12/28 15:04:57;;;;;;;143.77;51.83;;;;;;;;;;4686398;30;20062;-82
2021/12/28 15:07:51;;;;;;;155.15;54.50;;;;;;;;;;4691159;30;20058;-80
2021/12/28 15:10:40;;;;;;;149.13;55.05;;;;;;;;;;4686342;30;20061;-81
2021/12/28 15:13:29;;;;;;;146.05;53.38;;;;;;;;;;4685118;30;20062;-83
2021/12/28 15:16:15;;;;;;;163.43;54.15;;;;;;;;;;4687188;30;20437;-80
2021/12/28 15:19:00;;;;;;;156.27;53.22;;;;;;;;;;4700677;30;20061;-81
2021/12/28 15:21:45;;;;;;;167.50;56.05;;;;;;;;;;4703357;30;20053;-82
2021/12/28 15:24:32;;;;;;;163.85;61.08;;;;;;;;;;4703204;30;20046;-82
2021/12/28 15:27:18;;;;;;;156.50;58.05;;;;;;;;;;4707403;30;20073;-82
2021/12/28 15:30:09;;;;;;;172.45;64.68;;;;;;;;;;4702718;30;20054;-83
2021/12/28 15:32:56;;;;;;;167.52;61.45;;;;;;;;;;4713648;30;20057;-82
2021/12/28 15:35:44;;;;;;;166.80;65.75;;;;;;;;;;4707646;30;20502;-78
2021/12/28 15:38:29;;;;;;;156.52;62.25;;;;;;;;;;4703996;30;20061;-79
2021/12/28 15:41:15;;;;;;;162.88;58.40;;;;;;;;;;4703089;30;20046;-81
2021/12/28 15:44:00;;;;;;;158.57;60.15;;;;;;;;;;4704555;30;20054;-79
2021/12/28 15:46:46;;;;;;;179.88;69.53;;;;;;;;;;4707531;30;20054;-81
2021/12/28 15:49:32;;;;;;;166.48;63.55;;;;;;;;;;4711986;30;20049;-83
2021/12/28 15:52:17;;;;;;;166.38;57.15;;;;;;;;;;4720020;30;20490;-82
2021/12/28 15:55:04;;;;;;;173.07;57.80;;;;;;;;;;4719687;30;20049;-83
2021/12/28 15:57:51;;;;;;;161.27;57.03;;;;;;;;;;4720364;30;20061;-82
2021/12/28 16:00:36;;;;;;;145.63;54.00;;;;;;;;;;4702630;30;20053;-82
2021/12/28 16:03:22;;;;;;;174.05;60.70;;;;;;;;;;4680443;30;20054;-82
2021/12/28 16:06:10;;;;;;;172.90;62.55;;;;;;;;;;4689340;30;20054;-82
2021/12/28 16:08:56;;;;;;;186.82;73.57;;;;;;;;;;4685226;30;20058;-80
2021/12/28 16:11:41;;;;;;;165.10;60.88;;;;;;;;;;4704257;30;20414;-79
2021/12/28 16:14:27;;;;;;;143.50;61.50;;;;;;;;;;4701481;30;20054;-79
2021/12/28 16:17:12;;;;;;;168.10;63.55;;;;;;;;;;4689656;30;20066;-79
2021/12/28 16:19:58;;;;;;;162.60;64.13;;;;;;;;;;4706173;30;20057;-80